Terminal Aerodrome Forecast
Issued by NWS

Home | Current Version | Previous Version | Text Only | Print | Product List | Glossary On
Versions: 1 2 3 4 5 6 7 8 9 10 11 12 13 14 15 16 17 18 19 20 21 22 23 24 25 26 27 28 29 30
018
FTUS41 KALY 231130
TAFPSF
TAF
KPSF 231130Z 2312/2412 32005KT P6SM SKC
     FM231400 31010G18KT P6SM SKC
     FM232200 29005KT P6SM FEW150
     FM240500 00000KT P6SM BKN120
     FM241100 19006KT P6SM BKN100=

USA.gov is the U.S. government's official web portal to all federal, state and local government web resources and services.